Ana Sayfa
METAR-TAF:

METAR-TAF

Havaalanları :

Rowan County Airport

Salisbury, Kuzey Carolina, Amerika Birleşik Devletleri

Enlem: 35-39N, Boylam: 080-31W, yükseklik: 236 m

Güncel hava durumu gözlemi

Rapor saat 15:40 UTC de 33 dakika önce yapıldı.
Rüzgar kuzeybatıdan 3 kt
Sıcaklık 30°C
Nem 66%
Basınç 1019 hPa
Görüş mesafesi: 16.1 km
3300 ft yükseklikte parçalı bulutlu

METAR: KRUQ 191540Z AUTO 31003KT 10SM SCT033 30/23 A3008 RMK AO2 T03000225

Saat: 12:13 (16:13 UTC)


TAF: eksik

4.000'den fazla havaalanı için hava durumu gözlemleri ve tahminleri (METAR ve TAF raporları).

Kullanılabilir istasyonlar harita üzerinde sarı ve kırmızı noktalarla gösterilir.

İstasyonun adını görmek için fareyi noktanın üzerinde gezdirin.

Sonrasında hava gözlem ve tahminlerini görmek için tıklayın.

Haritayı değiştirmek için: yaklaştırmak için siyah artı işaretli yeşil düğmeye ve uzaklaştırmak için de eksi işaretli düğmeye hızla tıklayın; bitişik haritalar için yeşil okları kullanın.


METAR-TAF: